Airport details for: LKMT (Czech Republic)

Metar

LKMT 250900Z 13003KT 080V210 9999 FEW030 09/02 Q1028 NOSIG

General details

ICAO: LKMT
IATA: OSR
Name (city): Mosnov
Major:
Country: Czech Republic
vACC: Czech vACC
Description:

Web: http://www.vacc-cz.org/airports/lkmt

Scenery links:
FS9 scenery: Download
FSX/P3D scenery: Download
XP scenery: Download
Elevation: 844 ft.
Transition altitude: 5000 ft.
MSA: 11400 ft.
Latitude: 49.696111
Longitude: 18.110833
LKMT Charts
LKMT Notams
LKMT Online stations

Runways

Number Course Length Elevation Lat Lon ILS ILS freq ILS FAC GP
04 42° 11483ft / 3500 m 842ft 49.685322 18.093247 - - 3.0°
22 222° 11483ft / 3500 m 808ft 49.707125 18.128447 110.95 222° 3.0°